Time;durP1;ratioP1;P1;durP2;ratioP2;P2;SDS_P1;SDS_P2;PMS_P1;PMS_P2;Temp;Humidity;BMP_temperature;BMP_pressure;BME280_temperature;BME280_humidity;BME280_pressure;Samples;Min_cycle;Max_cycle;Signal;HPM_P1;HPM_P2
2021/12/13 00:00:02;;;;;;;1.67;1.57;;;1.90;99.90;;;;;;5010684;28;20993;-55
2021/12/13 00:02:34;;;;;;;1.50;1.20;;;1.90;99.90;;;;;;5008720;28;20914;-55
2021/12/13 00:05:11;;;;;;;2.37;2.17;;;1.90;99.90;;;;;;5011569;28;20470;-54
2021/12/13 00:07:41;;;;;;;2.83;2.30;;;1.90;99.90;;;;;;5012726;28;20997;-55
2021/12/13 00:10:15;;;;;;;2.70;2.50;;;2.00;99.90;;;;;;5011348;28;20798;-55
2021/12/13 00:12:44;;;;;;;4.23;3.00;;;1.90;99.90;;;;;;5010812;28;20530;-55
2021/12/13 00:15:17;;;;;;;4.37;2.37;;;1.90;99.90;;;;;;5008419;28;20485;-54
2021/12/13 00:17:47;;;;;;;3.93;3.43;;;1.90;99.90;;;;;;5006560;28;20439;-55
2021/12/13 00:20:26;;;;;;;3.07;2.47;;;1.90;99.90;;;;;;5010365;28;20478;-55
2021/12/13 00:22:55;;;;;;;3.63;2.87;;;1.90;99.90;;;;;;5003206;28;20486;-54
2021/12/13 00:25:27;;;;;;;2.47;2.27;;;1.90;99.90;;;;;;5011244;28;20502;-55
2021/12/13 00:27:59;;;;;;;3.83;2.43;;;1.90;99.90;;;;;;5002988;28;20474;-55
2021/12/13 00:30:35;;;;;;;2.63;1.33;;;1.90;99.90;;;;;;5011714;28;20510;-55
2021/12/13 00:33:15;;;;;;;2.17;1.00;;;1.90;99.90;;;;;;5011755;28;20467;-55
2021/12/13 00:35:47;;;;;;;1.17;1.07;;;1.90;99.90;;;;;;5011152;28;20486;-55
2021/12/13 00:38:16;;;;;;;1.07;0.97;;;1.90;99.90;;;;;;5004132;28;20478;-55
2021/12/13 00:40:50;;;;;;;1.33;1.13;;;1.90;99.90;;;;;;5010117;28;20921;-55
2021/12/13 00:43:22;;;;;;;2.30;1.70;;;1.90;99.90;;;;;;5010607;28;20502;-55
2021/12/13 00:45:54;;;;;;;3.23;2.93;;;1.90;99.90;;;;;;5010166;28;20957;-51
2021/12/13 00:48:22;;;;;;;3.57;3.27;;;1.90;99.90;;;;;;5007651;28;20456;-55
2021/12/13 00:51:00;;;;;;;3.37;2.20;;;1.90;99.90;;;;;;5010171;28;20510;-55
2021/12/13 00:53:34;;;;;;;1.73;1.60;;;1.90;99.90;;;;;;5012266;28;20470;-55
2021/12/13 00:56:40;;;;;;;1.67;1.30;;;1.90;99.90;;;;;;5010044;28;20473;-55
2021/12/13 00:59:10;;;;;;;3.13;2.57;;;1.80;99.90;;;;;;5005478;28;20439;-55
2021/12/13 01:01:38;;;;;;;3.30;2.63;;;1.60;99.90;;;;;;5011735;28;20576;-55
2021/12/13 01:04:09;;;;;;;4.60;3.43;;;1.60;99.90;;;;;;5007402;28;20533;-54
2021/12/13 01:07:15;;;;;;;7.80;5.43;;;1.60;99.90;;;;;;5010286;28;20544;-54
2021/12/13 01:10:23;;;;;;;6.13;4.10;;;1.70;99.90;;;;;;4960574;28;20478;-55
2021/12/13 01:12:52;;;;;;;5.93;4.33;;;1.70;99.90;;;;;;5007599;28;20509;-55
2021/12/13 01:15:30;;;;;;;6.33;4.57;;;1.70;99.90;;;;;;5011139;28;20513;-54
2021/12/13 01:18:15;;;;;;;6.30;5.27;;;1.70;99.90;;;;;;5010626;28;20471;-58
2021/12/13 01:20:59;;;;;;;6.63;5.60;;;1.70;99.90;;;;;;5009848;28;20556;-55
2021/12/13 01:23:40;;;;;;;4.23;3.73;;;1.70;99.90;;;;;;5006781;28;20473;-55
2021/12/13 01:26:27;;;;;;;4.27;3.73;;;1.70;99.90;;;;;;5010715;28;20439;-55
2021/12/13 01:28:57;;;;;;;6.53;4.73;;;1.70;99.90;;;;;;5009641;28;20542;-55
2021/12/13 01:31:31;;;;;;;4.43;4.03;;;1.60;99.90;;;;;;5009043;28;20934;-55
2021/12/13 01:34:00;;;;;;;5.03;4.53;;;1.60;99.90;;;;;;5002417;28;20874;-55
2021/12/13 01:36:32;;;;;;;4.97;4.57;;;1.60;99.90;;;;;;5009944;28;20695;-54
2021/12/13 01:39:06;;;;;;;6.10;4.80;;;1.60;99.90;;;;;;5008403;28;20446;-54
2021/12/13 01:41:36;;;;;;;5.93;5.53;;;1.60;99.90;;;;;;5010182;28;21564;-55
2021/12/13 01:44:07;;;;;;;8.13;4.27;;;1.60;99.90;;;;;;5010543;28;20953;-55
2021/12/13 01:46:38;;;;;;;4.83;4.43;;;1.70;99.90;;;;;;5013012;28;20471;-55
2021/12/13 01:49:07;;;;;;;7.20;6.37;;;1.70;99.90;;;;;;5012607;28;20476;-55
2021/12/13 01:51:35;;;;;;;15.43;8.67;;;1.70;99.90;;;;;;5012134;28;20497;-55
2021/12/13 01:54:06;;;;;;;9.60;8.80;;;1.80;99.90;;;;;;5010364;28;20543;-55
2021/12/13 01:56:48;;;;;;;10.93;9.40;;;1.80;99.90;;;;;;5008675;28;20451;-55
2021/12/13 02:02:27;;;;;;;10.13;8.73;;;1.80;99.90;;;;;;5001630;28;20943;-54
2021/12/13 02:05:06;;;;;;;12.87;9.60;;;1.80;99.90;;;;;;5011954;28;20906;-55
2021/12/13 02:07:41;;;;;;;11.63;10.10;;;1.70;99.90;;;;;;5012132;28;20999;-55
2021/12/13 02:10:12;;;;;;;10.23;9.20;;;1.80;99.90;;;;;;5011976;28;20558;-55
2021/12/13 02:12:43;;;;;;;10.10;9.30;;;1.80;99.90;;;;;;5010509;28;20506;-55
2021/12/13 02:17:59;;;;;;;11.20;10.10;;;1.60;99.90;;;;;;5008101;28;20433;-55
2021/12/13 02:20:32;;;;;;;12.13;9.17;;;1.60;99.90;;;;;;5017877;28;20518;-55
2021/12/13 02:23:01;;;;;;;10.70;9.40;;;1.70;99.90;;;;;;5016716;28;20442;-55
2021/12/13 02:25:33;;;;;;;11.23;10.10;;;1.70;99.90;;;;;;5011875;28;20538;-55
2021/12/13 02:28:04;;;;;;;11.17;10.07;;;1.70;99.90;;;;;;5011701;28;20478;-55
2021/12/13 02:30:41;;;;;;;13.53;10.60;;;1.70;99.90;;;;;;4969640;28;1149780;-55
2021/12/13 02:33:11;;;;;;;11.03;9.90;;;1.70;99.90;;;;;;5013761;28;20200;-55
2021/12/13 02:35:41;;;;;;;11.53;10.50;;;1.80;99.90;;;;;;5013158;28;20499;-55
2021/12/13 02:38:14;;;;;;;10.73;9.63;;;1.80;99.90;;;;;;5007740;28;20477;-55
2021/12/13 02:40:43;;;;;;;11.90;10.53;;;1.80;99.90;;;;;;5013441;28;20511;-55
2021/12/13 02:43:13;;;;;;;13.47;10.60;;;1.80;99.90;;;;;;5011946;28;20474;-55
2021/12/13 02:45:44;;;;;;;10.10;9.20;;;1.80;99.90;;;;;;5010269;28;20972;-55
2021/12/13 02:48:17;;;;;;;9.97;8.90;;;1.80;99.90;;;;;;5009898;28;20481;-55
2021/12/13 02:50:51;;;;;;;14.20;9.53;;;1.80;99.90;;;;;;5006743;28;20984;-55
2021/12/13 02:53:23;;;;;;;10.80;9.70;;;1.80;99.90;;;;;;5013023;28;20482;-54
2021/12/13 02:55:50;;;;;;;11.53;10.20;;;1.80;99.90;;;;;;5011459;28;20487;-55
2021/12/13 02:58:22;;;;;;;12.77;9.40;;;1.80;99.90;;;;;;5012532;28;20495;-55
2021/12/13 03:00:55;;;;;;;13.17;11.63;;;1.80;99.90;;;;;;5013450;28;20573;-55
2021/12/13 03:03:31;;;;;;;12.53;10.10;;;1.80;99.90;;;;;;5013191;28;20967;-55
2021/12/13 03:06:01;;;;;;;15.80;12.83;;;1.70;99.90;;;;;;5011449;28;20538;-55
2021/12/13 03:08:34;;;;;;;14.03;10.80;;;1.70;99.90;;;;;;5011355;28;20471;-55
2021/12/13 03:11:08;;;;;;;13.70;11.63;;;1.70;99.90;;;;;;5011872;28;21025;-55
2021/12/13 03:13:35;;;;;;;13.30;11.90;;;1.70;99.90;;;;;;5012237;28;20929;-55
2021/12/13 03:16:06;;;;;;;11.80;10.50;;;1.70;99.90;;;;;;5011741;28;20986;-55
2021/12/13 03:18:41;;;;;;;11.33;10.03;;;1.70;99.90;;;;;;5011944;28;20482;-54
2021/12/13 03:22:01;;;;;;;11.40;10.20;;;1.70;99.90;;;;;;5010868;28;20541;-55
2021/12/13 03:24:47;;;;;;;12.27;10.40;;;1.70;99.90;;;;;;5009345;28;21181;-55
2021/12/13 03:27:49;;;;;;;14.80;9.30;;;1.70;99.90;;;;;;5012086;28;20785;-55
2021/12/13 03:30:19;;;;;;;13.70;10.20;;;1.80;99.90;;;;;;5012391;28;21018;-55
2021/12/13 03:32:54;;;;;;;10.40;9.20;;;1.80;99.90;;;;;;5011209;28;20553;-54
2021/12/13 03:35:24;;;;;;;9.23;8.30;;;1.80;99.90;;;;;;5011419;28;20477;-55
2021/12/13 03:38:01;;;;;;;11.70;10.50;;;1.80;99.90;;;;;;5011551;28;20489;-55
2021/12/13 03:40:31;;;;;;;10.63;9.60;;;1.80;99.90;;;;;;5009041;28;20516;-55
2021/12/13 03:43:03;;;;;;;15.70;9.07;;;1.80;99.90;;;;;;5007256;28;20475;-55
2021/12/13 03:45:33;;;;;;;10.67;9.30;;;1.80;99.90;;;;;;5011305;28;20443;-55
2021/12/13 03:48:01;;;;;;;12.57;11.30;;;1.80;99.90;;;;;;5011196;28;20486;-55
2021/12/13 03:50:34;;;;;;;11.50;10.33;;;1.80;99.90;;;;;;5010721;28;20513;-55
2021/12/13 03:53:11;;;;;;;14.57;10.70;;;1.80;99.90;;;;;;5012844;28;20482;-55
2021/12/13 03:55:43;;;;;;;15.90;11.87;;;1.80;99.90;;;;;;5011209;28;20467;-54
2021/12/13 03:58:14;;;;;;;16.50;12.30;;;1.80;99.90;;;;;;5010936;28;20447;-55
2021/12/13 04:00:47;;;;;;;16.70;14.63;;;1.80;99.90;;;;;;5011085;28;21020;-54
2021/12/13 04:03:17;;;;;;;20.40;13.37;;;1.80;99.90;;;;;;5011277;28;20549;-55
2021/12/13 04:05:44;;;;;;;13.13;11.70;;;1.80;99.90;;;;;;5012312;28;20478;-55
2021/12/13 04:08:14;;;;;;;15.87;12.70;;;1.80;99.90;;;;;;5012148;28;20502;-55
2021/12/13 04:10:45;;;;;;;20.77;13.00;;;1.80;99.90;;;;;;5011557;28;20506;-54
2021/12/13 04:13:16;;;;;;;15.90;13.20;;;1.80;99.90;;;;;;5010788;28;20478;-55
2021/12/13 04:15:57;;;;;;;14.50;11.67;;;1.80;99.90;;;;;;5010440;28;20921;-55
2021/12/13 04:18:41;;;;;;;12.90;11.50;;;1.80;99.90;;;;;;5010955;28;20482;-56
2021/12/13 04:21:11;;;;;;;13.30;10.87;;;1.80;99.90;;;;;;5006191;28;21048;-55
2021/12/13 04:23:39;;;;;;;12.30;11.00;;;1.60;99.90;;;;;;5010464;28;20493;-55
2021/12/13 04:26:10;;;;;;;12.57;11.37;;;1.50;99.90;;;;;;5010674;28;20485;-55
2021/12/13 04:31:22;;;;;;;16.50;13.67;;;1.40;99.90;;;;;;5020990;28;20936;-50
2021/12/13 04:33:52;;;;;;;12.20;11.00;;;1.30;99.90;;;;;;5024417;28;20489;-50
2021/12/13 04:36:22;;;;;;;17.00;12.33;;;1.20;99.90;;;;;;5024167;28;20483;-49
2021/12/13 04:38:52;;;;;;;16.07;12.90;;;1.20;99.90;;;;;;5026627;28;20517;-49
2021/12/13 04:41:26;;;;;;;13.90;11.90;;;1.20;99.90;;;;;;5003059;28;20539;-50
2021/12/13 04:43:57;;;;;;;14.53;10.43;;;1.20;99.90;;;;;;5006305;28;20532;-51
2021/12/13 04:46:28;;;;;;;13.57;11.63;;;1.30;99.90;;;;;;5014944;28;20529;-50
2021/12/13 04:48:59;;;;;;;14.60;12.47;;;1.30;99.90;;;;;;5000237;28;20483;-52
2021/12/13 04:51:29;;;;;;;12.73;10.30;;;1.30;99.90;;;;;;5007914;28;20471;-48
2021/12/13 04:53:59;;;;;;;13.97;11.60;;;1.40;99.90;;;;;;5007836;28;20480;-50
2021/12/13 04:56:29;;;;;;;12.93;11.37;;;1.50;99.90;;;;;;5010559;28;20522;-49
2021/12/13 04:58:59;;;;;;;12.33;11.00;;;1.50;99.90;;;;;;5007697;28;20478;-50
2021/12/13 05:01:28;;;;;;;12.23;10.67;;;1.60;99.90;;;;;;5007971;28;21094;-49
2021/12/13 05:03:59;;;;;;;15.30;11.40;;;1.60;99.90;;;;;;5007907;28;20518;-49
2021/12/13 05:06:29;;;;;;;14.40;12.53;;;1.60;99.90;;;;;;5007212;28;20541;-49
2021/12/13 05:08:59;;;;;;;15.53;11.90;;;1.60;99.90;;;;;;5009613;28;20451;-50
2021/12/13 05:11:31;;;;;;;16.10;12.90;;;1.60;99.90;;;;;;5001236;28;20817;-51
2021/12/13 05:13:59;;;;;;;19.40;14.43;;;1.60;99.90;;;;;;5008148;28;20891;-51
2021/12/13 05:16:30;;;;;;;18.70;14.57;;;1.60;99.90;;;;;;5007412;28;20521;-51
2021/12/13 05:18:58;;;;;;;19.53;15.00;;;1.70;99.90;;;;;;5008381;28;20514;-50
2021/12/13 05:21:28;;;;;;;15.43;12.23;;;1.70;99.90;;;;;;5003941;28;20526;-48
2021/12/13 05:23:59;;;;;;;12.43;11.17;;;1.70;99.90;;;;;;5010988;28;20525;-48
2021/12/13 05:26:34;;;;;;;9.17;8.27;;;1.70;99.90;;;;;;5009478;28;20679;-49
2021/12/13 05:29:03;;;;;;;11.60;9.33;;;1.50;99.90;;;;;;5014022;28;20493;-48
2021/12/13 05:31:31;;;;;;;9.00;8.13;;;1.40;99.90;;;;;;5011275;28;20489;-48
2021/12/13 05:34:04;;;;;;;9.80;8.80;;;1.50;99.90;;;;;;5010567;28;21031;-48
2021/12/13 05:36:33;;;;;;;9.30;7.90;;;1.60;99.90;;;;;;5008726;28;20481;-48
2021/12/13 05:39:08;;;;;;;9.23;8.30;;;1.60;99.90;;;;;;5007943;28;21051;-49
2021/12/13 05:41:37;;;;;;;10.53;9.07;;;1.70;99.90;;;;;;5011816;28;20564;-48
2021/12/13 05:44:07;;;;;;;10.77;9.50;;;1.70;99.90;;;;;;5011302;28;20534;-50
2021/12/13 05:46:36;;;;;;;15.50;13.27;;;1.80;99.90;;;;;;5010025;28;20486;-49
2021/12/13 05:49:06;;;;;;;10.13;9.10;;;1.80;99.90;;;;;;5008747;28;21086;-48
2021/12/13 05:51:37;;;;;;;12.10;10.60;;;1.60;99.90;;;;;;5013009;28;21015;-48
2021/12/13 05:54:08;;;;;;;9.90;8.10;;;1.50;99.90;;;;;;5002081;28;21004;-49
2021/12/13 05:56:41;;;;;;;10.13;9.13;;;1.50;99.90;;;;;;5004911;28;20535;-49
2021/12/13 05:59:22;;;;;;;10.50;9.60;;;1.60;99.90;;;;;;5009977;28;20930;-49
2021/12/13 06:02:06;;;;;;;9.73;8.73;;;1.70;99.90;;;;;;5013360;28;20569;-49
2021/12/13 06:04:38;;;;;;;10.57;9.47;;;1.60;99.90;;;;;;5007738;28;20451;-50
2021/12/13 06:07:18;;;;;;;8.70;7.90;;;1.40;99.90;;;;;;5010049;28;20877;-52
2021/12/13 06:09:56;;;;;;;7.47;6.77;;;1.40;99.90;;;;;;5012884;28;20469;-48
2021/12/13 06:12:38;;;;;;;10.07;9.17;;;1.50;99.90;;;;;;5009327;28;20732;-48
2021/12/13 06:15:24;;;;;;;11.47;9.40;;;1.60;99.90;;;;;;5012000;28;20509;-48
2021/12/13 06:17:58;;;;;;;9.47;8.47;;;1.60;99.90;;;;;;5016507;28;20447;-48
2021/12/13 06:20:29;;;;;;;8.77;7.97;;;1.60;99.90;;;;;;5007099;28;20554;-48
2021/12/13 06:23:06;;;;;;;9.17;8.03;;;1.60;99.90;;;;;;5006467;28;20562;-48
2021/12/13 06:25:33;;;;;;;11.03;10.00;;;1.60;99.90;;;;;;5012519;28;20546;-48
2021/12/13 06:28:02;;;;;;;12.77;11.57;;;1.60;99.90;;;;;;5007843;28;20535;-49
2021/12/13 06:30:30;;;;;;;17.73;16.00;;;1.70;99.90;;;;;;5015693;28;20557;-50
2021/12/13 06:32:59;;;;;;;16.17;14.53;;;1.70;99.90;;;;;;5014922;28;20537;-51
2021/12/13 06:35:40;;;;;;;14.07;12.47;;;1.70;99.90;;;;;;5013811;28;20524;-49
2021/12/13 06:38:43;;;;;;;13.33;11.77;;;1.80;99.90;;;;;;5012293;28;20492;-51
2021/12/13 06:41:16;;;;;;;12.40;11.03;;;1.70;99.90;;;;;;5009602;28;20529;-49
2021/12/13 06:43:48;;;;;;;16.00;12.57;;;1.80;99.90;;;;;;5009445;28;20533;-48
2021/12/13 06:46:45;;;;;;;13.80;11.60;;;1.80;99.90;;;;;;5003086;28;20538;-50
2021/12/13 06:49:20;;;;;;;14.67;13.10;;;1.80;99.90;;;;;;5007639;28;20984;-50
2021/12/13 06:51:53;;;;;;;13.57;12.23;;;1.80;99.90;;;;;;5009987;28;20997;-50
2021/12/13 06:54:26;;;;;;;12.27;11.00;;;1.90;99.90;;;;;;5014457;28;20454;-48
2021/12/13 06:56:56;;;;;;;11.20;10.20;;;1.90;99.90;;;;;;5001563;28;20533;-49
2021/12/13 06:59:25;;;;;;;13.07;11.97;;;1.90;99.90;;;;;;5008862;28;21038;-48
2021/12/13 07:02:02;;;;;;;11.23;10.00;;;1.90;99.90;;;;;;5009858;28;20566;-48
2021/12/13 07:04:39;;;;;;;12.57;10.67;;;1.90;99.90;;;;;;5008309;28;20522;-49
2021/12/13 07:07:12;;;;;;;12.77;11.33;;;2.00;99.90;;;;;;5009766;28;20897;-48
2021/12/13 07:09:39;;;;;;;15.17;11.30;;;2.00;99.90;;;;;;5008772;28;20549;-48
2021/12/13 07:12:15;;;;;;;21.47;15.43;;;2.00;99.90;;;;;;5010765;28;20441;-47
2021/12/13 07:14:44;;;;;;;17.63;15.40;;;2.00;99.90;;;;;;5014526;28;20435;-48
2021/12/13 07:17:14;;;;;;;30.60;20.70;;;2.00;99.90;;;;;;5004238;28;20450;-48
2021/12/13 07:19:43;;;;;;;27.30;18.57;;;2.00;99.90;;;;;;5010682;28;20490;-49
2021/12/13 07:22:11;;;;;;;25.43;18.57;;;2.00;99.90;;;;;;5009374;28;20557;-48
2021/12/13 07:24:42;;;;;;;21.23;17.63;;;2.00;99.90;;;;;;5009303;28;20741;-48
2021/12/13 07:27:12;;;;;;;21.67;17.87;;;2.00;99.90;;;;;;5009641;28;20454;-49
2021/12/13 07:29:45;;;;;;;23.97;17.93;;;2.00;99.90;;;;;;5007105;28;20898;-48
2021/12/13 07:32:17;;;;;;;16.43;13.70;;;2.00;99.90;;;;;;4983932;28;20910;-48
2021/12/13 07:34:52;;;;;;;16.00;12.53;;;2.00;99.90;;;;;;4991201;28;20874;-49
2021/12/13 07:37:32;;;;;;;12.13;10.40;;;2.00;99.90;;;;;;4989745;28;20979;-49
2021/12/13 07:40:25;;;;;;;8.43;7.63;;;2.10;99.90;;;;;;4989085;28;20542;-48
2021/12/13 07:42:58;;;;;;;22.87;16.43;;;2.10;99.90;;;;;;4987122;28;20567;-49
2021/12/13 07:45:32;;;;;;;15.97;12.10;;;2.10;99.90;;;;;;4985989;28;20881;-49
2021/12/13 07:48:04;;;;;;;7.97;7.20;;;2.10;99.90;;;;;;4985711;28;20525;-48
2021/12/13 07:50:33;;;;;;;11.13;7.57;;;2.10;99.90;;;;;;4995278;28;20909;-48
2021/12/13 07:53:04;;;;;;;7.57;6.87;;;2.10;99.90;;;;;;4988502;28;20472;-48
2021/12/13 07:55:32;;;;;;;10.23;8.30;;;2.10;99.90;;;;;;4990502;28;20893;-50
2021/12/13 07:58:03;;;;;;;12.23;11.00;;;2.10;99.90;;;;;;4989482;28;20794;-48
2021/12/13 08:00:40;;;;;;;12.40;9.97;;;2.10;99.90;;;;;;4989291;28;21067;-51
2021/12/13 08:03:11;;;;;;;13.77;10.40;;;2.10;99.90;;;;;;4990423;28;20570;-48
2021/12/13 08:05:42;;;;;;;10.70;8.43;;;2.00;99.90;;;;;;4988281;28;20523;-48
2021/12/13 08:08:20;;;;;;;8.53;7.70;;;1.80;99.90;;;;;;4988593;28;20539;-48
2021/12/13 08:10:49;;;;;;;10.57;8.60;;;1.90;99.90;;;;;;4988768;28;20808;-49
2021/12/13 08:13:20;;;;;;;7.70;7.00;;;1.90;99.90;;;;;;4989672;28;20882;-48
2021/12/13 08:15:51;;;;;;;9.83;9.00;;;2.00;99.90;;;;;;4986104;28;20539;-48
2021/12/13 08:18:27;;;;;;;13.13;11.73;;;2.00;99.90;;;;;;4991021;28;20543;-49
2021/12/13 08:20:58;;;;;;;13.27;12.00;;;2.10;99.90;;;;;;4990156;28;20551;-48
2021/12/13 08:23:29;;;;;;;11.73;10.10;;;2.00;99.90;;;;;;4987959;28;21066;-47
2021/12/13 08:26:01;;;;;;;11.57;10.37;;;1.80;99.90;;;;;;4988331;28;20530;-48
2021/12/13 08:28:38;;;;;;;13.60;9.83;;;1.90;99.90;;;;;;4989382;28;20522;-48
2021/12/13 08:31:08;;;;;;;9.30;8.33;;;1.90;99.90;;;;;;5006362;28;20549;-48
2021/12/13 08:33:40;;;;;;;10.80;8.97;;;2.00;99.90;;;;;;5004970;28;20904;-48
2021/12/13 08:36:11;;;;;;;14.03;9.57;;;2.00;99.90;;;;;;5007417;28;20479;-49
2021/12/13 08:38:44;;;;;;;12.00;10.80;;;2.10;99.90;;;;;;5008151;28;20529;-48
2021/12/13 08:41:28;;;;;;;14.90;13.10;;;2.10;99.90;;;;;;5003340;28;20555;-50
2021/12/13 08:43:58;;;;;;;17.40;14.73;;;2.00;99.90;;;;;;5000637;28;20563;-47
2021/12/13 08:46:37;;;;;;;16.43;14.83;;;2.10;99.90;;;;;;5007455;28;20526;-50
2021/12/13 08:49:16;;;;;;;17.57;15.80;;;2.10;99.90;;;;;;5007356;28;20495;-50
2021/12/13 08:51:56;;;;;;;17.03;14.70;;;2.10;99.90;;;;;;5007108;28;20525;-48
2021/12/13 08:54:35;;;;;;;13.53;12.13;;;2.10;99.90;;;;;;5005389;28;20431;-48
2021/12/13 08:57:03;;;;;;;15.97;13.37;;;2.20;99.90;;;;;;5012590;28;20885;-49
2021/12/13 08:59:30;;;;;;;21.90;14.53;;;2.20;99.90;;;;;;5017345;28;20628;-48
2021/12/13 09:02:06;;;;;;;10.73;9.63;;;2.20;99.90;;;;;;5011867;28;20474;-50
2021/12/13 09:04:35;;;;;;;13.20;10.53;;;2.20;99.90;;;;;;5009046;28;20533;-50
2021/12/13 09:07:07;;;;;;;9.23;8.23;;;2.20;99.90;;;;;;5009346;28;20481;-49
2021/12/13 09:09:41;;;;;;;17.73;13.73;;;2.20;99.90;;;;;;5009410;28;20558;-48
2021/12/13 09:12:10;;;;;;;17.57;15.70;;;2.30;99.90;;;;;;5010322;28;20531;-48
2021/12/13 09:14:40;;;;;;;15.50;13.90;;;2.20;99.90;;;;;;5009420;28;20517;-48
2021/12/13 09:17:16;;;;;;;8.07;7.37;;;1.90;99.90;;;;;;5003154;28;20443;-48
2021/12/13 09:19:55;;;;;;;8.00;7.20;;;1.70;99.90;;;;;;5012372;28;20465;-48
2021/12/13 09:22:27;;;;;;;7.20;6.07;;;1.60;99.90;;;;;;5012175;28;21071;-48
2021/12/13 09:24:58;;;;;;;6.97;6.27;;;1.80;99.90;;;;;;5010420;28;20999;-48
2021/12/13 09:27:33;;;;;;;8.50;6.00;;;1.80;99.90;;;;;;5002868;28;20479;-48
2021/12/13 09:30:23;;;;;;;10.03;8.70;;;1.90;99.90;;;;;;5014440;28;20545;-47
2021/12/13 09:32:55;;;;;;;12.83;10.70;;;2.00;99.90;;;;;;4994492;28;20526;-50
2021/12/13 09:35:38;;;;;;;15.70;13.90;;;2.10;99.90;;;;;;5011393;28;20533;-48
2021/12/13 09:38:23;;;;;;;19.63;16.40;;;2.10;99.90;;;;;;5009857;28;20534;-48
2021/12/13 09:40:53;;;;;;;20.43;16.53;;;2.20;99.90;;;;;;5010050;28;21887;-48
2021/12/13 09:43:22;;;;;;;18.80;16.87;;;2.20;99.90;;;;;;5010795;28;20599;-48
2021/12/13 09:45:54;;;;;;;20.53;16.30;;;2.20;99.90;;;;;;5011356;28;20954;-49
2021/12/13 09:48:26;;;;;;;17.37;14.37;;;2.10;99.90;;;;;;5010046;28;20530;-49
2021/12/13 09:50:57;;;;;;;23.10;16.90;;;2.20;99.90;;;;;;5011237;28;20489;-47
2021/12/13 09:53:31;;;;;;;26.63;16.80;;;2.10;99.90;;;;;;5011180;28;20469;-48
2021/12/13 09:56:01;;;;;;;20.17;17.43;;;2.10;99.90;;;;;;5010217;28;20481;-48
2021/12/13 09:58:37;;;;;;;18.33;15.40;;;2.10;99.90;;;;;;5010577;28;20537;-49
2021/12/13 10:01:11;;;;;;;16.87;15.07;;;2.00;99.90;;;;;;5009944;28;20509;-49
2021/12/13 10:03:50;;;;;;;15.67;13.73;;;2.10;99.90;;;;;;5006893;28;20851;-48
2021/12/13 10:06:21;;;;;;;17.13;14.00;;;2.20;99.90;;;;;;5010201;28;20565;-49
2021/12/13 10:08:52;;;;;;;18.33;15.73;;;2.20;99.90;;;;;;5008957;28;20537;-48
2021/12/13 10:11:22;;;;;;;34.37;24.40;;;2.30;99.90;;;;;;5011076;28;20485;-49
2021/12/13 10:13:49;;;;;;;18.57;14.93;;;2.40;99.90;;;;;;5011184;28;20522;-51
2021/12/13 10:16:20;;;;;;;19.60;15.70;;;2.40;99.90;;;;;;5009894;28;20526;-49
2021/12/13 10:18:52;;;;;;;16.60;14.90;;;2.40;99.90;;;;;;5010750;28;20478;-50
2021/12/13 10:21:22;;;;;;;16.53;14.83;;;2.50;99.90;;;;;;5012246;28;20521;-49
2021/12/13 10:23:55;;;;;;;17.50;15.67;;;2.40;99.90;;;;;;5012639;28;20561;-51
2021/12/13 10:26:25;;;;;;;16.27;14.67;;;2.50;99.90;;;;;;5009639;28;20549;-49
2021/12/13 10:28:56;;;;;;;18.07;16.17;;;2.50;99.90;;;;;;5010599;28;20927;-52
2021/12/13 10:31:27;;;;;;;17.33;15.37;;;2.40;99.90;;;;;;5006502;28;20455;-49
2021/12/13 10:33:58;;;;;;;17.43;14.33;;;2.40;99.90;;;;;;4995682;28;20511;-50
2021/12/13 10:36:28;;;;;;;19.20;16.60;;;2.20;99.90;;;;;;5001200;28;20544;-50
2021/12/13 10:38:59;;;;;;;18.83;16.97;;;2.30;99.90;;;;;;5011678;28;20458;-51
2021/12/13 10:41:33;;;;;;;18.97;15.23;;;2.40;99.90;;;;;;5007685;28;20466;-50
2021/12/13 10:44:05;;;;;;;38.33;31.40;;;2.50;99.90;;;;;;5011342;28;20566;-50
2021/12/13 10:46:37;;;;;;;21.03;18.93;;;2.50;99.90;;;;;;5010524;28;20827;-50
2021/12/13 10:49:09;;;;;;;22.70;19.83;;;2.60;99.90;;;;;;5009239;28;20566;-49
2021/12/13 10:51:40;;;;;;;18.20;16.33;;;2.60;99.90;;;;;;5010104;28;20534;-50
2021/12/13 10:54:12;;;;;;;17.80;16.00;;;2.70;99.90;;;;;;5010395;28;20862;-52
2021/12/13 10:56:42;;;;;;;17.33;15.40;;;2.70;99.90;;;;;;5006559;28;20527;-50
2021/12/13 10:59:13;;;;;;;16.80;14.97;;;2.70;99.90;;;;;;5010232;28;20549;-49
2021/12/13 11:01:43;;;;;;;18.07;15.97;;;2.80;99.90;;;;;;5011029;28;20475;-49
2021/12/13 11:04:16;;;;;;;19.87;17.77;;;2.80;99.90;;;;;;5009291;28;20558;-49
2021/12/13 11:06:46;;;;;;;19.23;17.20;;;2.70;99.90;;;;;;5010930;28;20538;-51
2021/12/13 11:09:16;;;;;;;23.00;20.57;;;2.60;99.90;;;;;;5009257;28;20467;-51
2021/12/13 11:11:46;;;;;;;21.03;19.00;;;2.60;99.90;;;;;;5009694;28;20451;-49
2021/12/13 11:14:17;;;;;;;19.87;17.67;;;2.60;99.90;;;;;;5010417;28;20539;-50
2021/12/13 11:16:48;;;;;;;15.83;14.00;;;2.70;99.90;;;;;;5009313;28;20460;-52
2021/12/13 11:19:20;;;;;;;16.17;14.50;;;2.70;99.90;;;;;;5012183;28;20481;-51
2021/12/13 11:21:49;;;;;;;17.37;15.57;;;2.80;99.90;;;;;;5008172;28;20479;-50
2021/12/13 11:24:20;;;;;;;18.10;16.30;;;2.80;99.90;;;;;;5008808;28;21019;-50
2021/12/13 11:26:50;;;;;;;18.90;17.00;;;2.80;99.90;;;;;;5009690;28;20874;-50
2021/12/13 11:29:18;;;;;;;21.53;19.30;;;2.90;99.90;;;;;;5011982;28;20634;-50
2021/12/13 11:32:42;;;;;;;24.33;19.50;;;2.80;99.90;;;;;;4987410;28;20495;-50
2021/12/13 11:35:46;;;;;;;20.13;15.87;;;2.80;99.90;;;;;;4989588;28;20517;-49
2021/12/13 11:38:30;;;;;;;19.00;17.00;;;2.90;99.90;;;;;;4990051;28;20884;-50
2021/12/13 11:41:20;;;;;;;18.50;16.57;;;2.90;99.90;;;;;;4986258;28;20539;-50
2021/12/13 11:44:04;;;;;;;18.90;17.10;;;2.90;99.90;;;;;;4988818;28;20574;-49
2021/12/13 11:47:15;;;;;;;18.53;15.93;;;2.90;99.90;;;;;;4988874;28;20476;-49
2021/12/13 11:49:59;;;;;;;20.07;16.90;;;3.00;99.90;;;;;;4989958;28;21034;-50
2021/12/13 11:53:05;;;;;;;17.23;15.53;;;2.90;99.90;;;;;;4985513;28;21178;-50
2021/12/13 11:55:50;;;;;;;17.10;15.33;;;3.00;99.90;;;;;;4982554;28;20527;-49
2021/12/13 11:58:52;;;;;;;18.40;16.53;;;3.00;99.90;;;;;;4986908;28;20891;-50
2021/12/13 12:01:54;;;;;;;16.73;15.00;;;3.00;99.90;;;;;;4957768;28;20524;-50
2021/12/13 12:05:05;;;;;;;16.40;14.43;;;3.00;99.90;;;;;;4989103;28;20543;-51
2021/12/13 12:08:08;;;;;;;15.03;13.43;;;3.10;99.90;;;;;;4990545;28;20456;-49
2021/12/13 12:11:00;;;;;;;14.83;12.90;;;3.10;99.90;;;;;;4967949;28;21065;-49
2021/12/13 12:13:36;;;;;;;18.40;15.17;;;3.10;99.90;;;;;;4976902;28;20540;-48
2021/12/13 12:16:06;;;;;;;19.43;16.57;;;3.20;99.90;;;;;;4988881;28;20947;-49
2021/12/13 12:18:36;;;;;;;21.63;19.43;;;3.20;99.90;;;;;;4989458;28;20498;-49
2021/12/13 12:21:31;;;;;;;18.13;16.27;;;3.20;99.90;;;;;;4989759;28;20556;-49
2021/12/13 12:24:00;;;;;;;19.90;14.80;;;3.20;99.90;;;;;;4989740;28;20559;-48
2021/12/13 12:26:29;;;;;;;16.73;14.93;;;3.20;99.90;;;;;;4989409;28;20509;-50
2021/12/13 12:29:02;;;;;;;15.53;13.93;;;3.20;99.90;;;;;;4988092;28;20443;-50
2021/12/13 12:31:32;;;;;;;17.77;13.20;;;3.20;99.90;;;;;;5007305;28;20443;-51
2021/12/13 12:34:00;;;;;;;12.03;11.00;;;3.20;99.90;;;;;;5008392;28;20539;-49
2021/12/13 12:36:40;;;;;;;11.60;10.47;;;3.20;99.90;;;;;;5006785;28;20451;-49
2021/12/13 12:39:41;;;;;;;15.53;9.83;;;3.20;99.90;;;;;;5010248;28;21062;-47
2021/12/13 12:42:24;;;;;;;12.87;11.53;;;3.20;99.90;;;;;;5007902;28;20539;-51
2021/12/13 12:45:12;;;;;;;12.97;10.53;;;3.10;99.90;;;;;;5007380;28;20571;-50
2021/12/13 12:48:02;;;;;;;13.53;10.87;;;3.00;99.90;;;;;;5007729;28;20526;-50
2021/12/13 12:50:34;;;;;;;11.43;10.23;;;3.00;99.90;;;;;;4999715;28;20509;-49
2021/12/13 12:53:07;;;;;;;14.20;12.10;;;3.00;99.90;;;;;;5008121;28;20481;-49
2021/12/13 12:55:39;;;;;;;15.60;12.00;;;3.10;99.90;;;;;;5009212;28;20526;-50
2021/12/13 12:58:15;;;;;;;15.40;13.83;;;3.00;99.90;;;;;;5008122;28;20890;-49
2021/12/13 13:00:43;;;;;;;14.30;12.20;;;3.00;99.90;;;;;;5009329;28;20459;-50
2021/12/13 13:03:21;;;;;;;15.17;13.50;;;3.00;99.90;;;;;;5009854;28;20468;-51
2021/12/13 13:05:48;;;;;;;15.37;12.77;;;3.00;99.90;;;;;;5001713;28;20550;-50
2021/12/13 13:08:28;;;;;;;13.10;11.73;;;3.00;99.90;;;;;;5008302;28;20531;-50
2021/12/13 13:11:26;;;;;;;12.83;11.50;;;3.00;99.90;;;;;;5008912;28;20545;-50
2021/12/13 13:13:49;;;;;;;12.50;11.30;;;3.00;99.90;;;;;;5007754;28;20436;-51
2021/12/13 13:16:18;;;;;;;14.07;10.97;;;3.10;99.90;;;;;;5009454;28;20462;-50
2021/12/13 13:18:45;;;;;;;11.43;9.90;;;3.10;99.90;;;;;;5009146;28;20990;-50
2021/12/13 13:21:14;;;;;;;13.27;11.40;;;3.10;99.90;;;;;;5010066;28;20518;-50
2021/12/13 13:23:45;;;;;;;15.70;12.93;;;3.00;99.90;;;;;;5008894;28;20483;-49
2021/12/13 13:26:15;;;;;;;15.23;13.20;;;3.00;99.90;;;;;;5008066;28;20444;-50
2021/12/13 13:28:45;;;;;;;16.50;14.27;;;3.00;99.90;;;;;;5010650;28;20482;-49